sensor_id;sensor_type;location;lat;lon;timestamp;P1;durP1;ratioP1;P2;durP2;ratioP2
61391;SDS011;47261;52.892;5.738;2024-01-30T00:01:13;36.88;;;16.08;;
61391;SDS011;47261;52.892;5.738;2024-01-30T00:03:38;34.33;;;17.30;;
61391;SDS011;47261;52.892;5.738;2024-01-30T00:06:04;34.38;;;16.52;;
61391;SDS011;47261;52.892;5.738;2024-01-30T00:08:30;31.03;;;15.50;;
61391;SDS011;47261;52.892;5.738;2024-01-30T00:10:55;34.13;;;15.68;;
61391;SDS011;47261;52.892;5.738;2024-01-30T00:13:21;30.20;;;15.77;;
61391;SDS011;47261;52.892;5.738;2024-01-30T00:15:47;32.60;;;14.55;;
61391;SDS011;47261;52.892;5.738;2024-01-30T00:18:13;27.95;;;14.30;;
61391;SDS011;47261;52.892;5.738;2024-01-30T00:20:39;33.23;;;15.53;;
61391;SDS011;47261;52.892;5.738;2024-01-30T00:23:05;36.35;;;16.48;;
61391;SDS011;47261;52.892;5.738;2024-01-30T00:25:30;31.33;;;16.27;;
61391;SDS011;47261;52.892;5.738;2024-01-30T00:27:58;32.15;;;16.30;;
61391;SDS011;47261;52.892;5.738;2024-01-30T00:30:23;33.23;;;17.37;;
61391;SDS011;47261;52.892;5.738;2024-01-30T00:32:49;35.92;;;16.02;;
61391;SDS011;47261;52.892;5.738;2024-01-30T00:35:15;30.00;;;15.03;;
61391;SDS011;47261;52.892;5.738;2024-01-30T00:37:40;33.22;;;16.20;;
61391;SDS011;47261;52.892;5.738;2024-01-30T00:40:06;35.77;;;17.17;;
61391;SDS011;47261;52.892;5.738;2024-01-30T00:42:32;32.67;;;16.42;;
61391;SDS011;47261;52.892;5.738;2024-01-30T00:44:58;34.87;;;16.67;;
61391;SDS011;47261;52.892;5.738;2024-01-30T00:47:24;34.85;;;16.33;;
61391;SDS011;47261;52.892;5.738;2024-01-30T00:49:49;32.00;;;15.77;;
61391;SDS011;47261;52.892;5.738;2024-01-30T00:52:15;32.65;;;15.40;;
61391;SDS011;47261;52.892;5.738;2024-01-30T00:54:40;30.27;;;13.30;;
61391;SDS011;47261;52.892;5.738;2024-01-30T00:57:06;28.53;;;15.97;;
61391;SDS011;47261;52.892;5.738;2024-01-30T00:59:32;31.08;;;14.90;;
61391;SDS011;47261;52.892;5.738;2024-01-30T01:01:58;31.25;;;15.43;;
61391;SDS011;47261;52.892;5.738;2024-01-30T01:04:24;31.65;;;15.85;;
61391;SDS011;47261;52.892;5.738;2024-01-30T01:06:51;34.23;;;15.80;;
61391;SDS011;47261;52.892;5.738;2024-01-30T01:09:17;33.03;;;16.10;;
61391;SDS011;47261;52.892;5.738;2024-01-30T01:11:43;30.73;;;15.90;;
61391;SDS011;47261;52.892;5.738;2024-01-30T01:14:08;32.63;;;14.65;;
61391;SDS011;47261;52.892;5.738;2024-01-30T01:16:34;27.03;;;13.60;;
61391;SDS011;47261;52.892;5.738;2024-01-30T01:19:00;30.05;;;13.10;;
61391;SDS011;47261;52.892;5.738;2024-01-30T01:21:25;25.50;;;12.93;;
61391;SDS011;47261;52.892;5.738;2024-01-30T01:23:51;27.80;;;11.05;;
61391;SDS011;47261;52.892;5.738;2024-01-30T01:26:17;24.10;;;11.20;;
61391;SDS011;47261;52.892;5.738;2024-01-30T01:28:42;24.40;;;11.07;;
61391;SDS011;47261;52.892;5.738;2024-01-30T01:31:08;26.30;;;13.20;;
61391;SDS011;47261;52.892;5.738;2024-01-30T01:33:34;28.88;;;13.02;;
61391;SDS011;47261;52.892;5.738;2024-01-30T01:36:02;29.43;;;14.53;;
61391;SDS011;47261;52.892;5.738;2024-01-30T01:38:28;36.20;;;15.07;;
61391;SDS011;47261;52.892;5.738;2024-01-30T01:40:54;27.25;;;13.32;;
61391;SDS011;47261;52.892;5.738;2024-01-30T01:43:19;34.93;;;15.33;;
61391;SDS011;47261;52.892;5.738;2024-01-30T01:45:45;38.03;;;16.88;;
61391;SDS011;47261;52.892;5.738;2024-01-30T01:48:11;34.93;;;16.43;;
61391;SDS011;47261;52.892;5.738;2024-01-30T01:50:38;28.80;;;14.27;;
61391;SDS011;47261;52.892;5.738;2024-01-30T01:53:04;33.00;;;15.50;;
61391;SDS011;47261;52.892;5.738;2024-01-30T01:55:32;34.95;;;15.48;;
61391;SDS011;47261;52.892;5.738;2024-01-30T01:58:00;34.13;;;17.25;;
61391;SDS011;47261;52.892;5.738;2024-01-30T02:00:25;29.08;;;14.32;;
61391;SDS011;47261;52.892;5.738;2024-01-30T02:02:51;33.53;;;14.38;;
61391;SDS011;47261;52.892;5.738;2024-01-30T02:05:19;33.13;;;16.50;;
61391;SDS011;47261;52.892;5.738;2024-01-30T02:07:46;33.80;;;15.93;;
61391;SDS011;47261;52.892;5.738;2024-01-30T02:10:12;30.15;;;14.25;;
61391;SDS011;47261;52.892;5.738;2024-01-30T02:12:38;36.00;;;16.67;;
61391;SDS011;47261;52.892;5.738;2024-01-30T02:15:05;32.33;;;14.52;;
61391;SDS011;47261;52.892;5.738;2024-01-30T02:17:32;28.75;;;12.88;;
61391;SDS011;47261;52.892;5.738;2024-01-30T02:19:58;33.10;;;16.85;;
61391;SDS011;47261;52.892;5.738;2024-01-30T02:22:24;25.58;;;12.18;;
61391;SDS011;47261;52.892;5.738;2024-01-30T02:24:50;26.60;;;12.40;;
61391;SDS011;47261;52.892;5.738;2024-01-30T02:27:15;28.90;;;14.63;;
61391;SDS011;47261;52.892;5.738;2024-01-30T02:29:41;27.92;;;13.80;;
61391;SDS011;47261;52.892;5.738;2024-01-30T02:32:07;23.13;;;10.87;;
61391;SDS011;47261;52.892;5.738;2024-01-30T02:34:32;21.63;;;10.77;;
61391;SDS011;47261;52.892;5.738;2024-01-30T02:36:58;18.85;;;7.78;;
61391;SDS011;47261;52.892;5.738;2024-01-30T02:39:24;24.20;;;11.40;;
61391;SDS011;47261;52.892;5.738;2024-01-30T02:41:50;30.70;;;14.30;;
61391;SDS011;47261;52.892;5.738;2024-01-30T02:44:15;22.77;;;11.87;;
61391;SDS011;47261;52.892;5.738;2024-01-30T02:46:41;24.90;;;13.60;;
61391;SDS011;47261;52.892;5.738;2024-01-30T02:49:07;19.90;;;10.20;;
61391;SDS011;47261;52.892;5.738;2024-01-30T02:51:32;26.47;;;13.07;;
61391;SDS011;47261;52.892;5.738;2024-01-30T02:53:58;27.30;;;12.60;;
61391;SDS011;47261;52.892;5.738;2024-01-30T02:56:24;26.85;;;13.30;;
61391;SDS011;47261;52.892;5.738;2024-01-30T02:58:50;27.30;;;13.40;;
61391;SDS011;47261;52.892;5.738;2024-01-30T03:01:15;26.75;;;13.23;;
61391;SDS011;47261;52.892;5.738;2024-01-30T03:03:41;25.00;;;12.17;;
61391;SDS011;47261;52.892;5.738;2024-01-30T03:06:08;22.83;;;11.82;;
61391;SDS011;47261;52.892;5.738;2024-01-30T03:08:33;21.50;;;11.50;;
61391;SDS011;47261;52.892;5.738;2024-01-30T03:11:00;27.92;;;12.35;;
61391;SDS011;47261;52.892;5.738;2024-01-30T03:13:25;23.52;;;12.05;;
61391;SDS011;47261;52.892;5.738;2024-01-30T03:15:51;24.73;;;12.00;;
61391;SDS011;47261;52.892;5.738;2024-01-30T03:18:17;25.83;;;10.53;;
61391;SDS011;47261;52.892;5.738;2024-01-30T03:20:43;15.95;;;7.40;;
61391;SDS011;47261;52.892;5.738;2024-01-30T03:23:08;28.42;;;13.05;;
61391;SDS011;47261;52.892;5.738;2024-01-30T03:25:34;24.17;;;11.93;;
61391;SDS011;47261;52.892;5.738;2024-01-30T03:28:00;22.73;;;12.27;;
61391;SDS011;47261;52.892;5.738;2024-01-30T03:30:26;21.80;;;10.00;;
61391;SDS011;47261;52.892;5.738;2024-01-30T03:32:51;21.80;;;11.60;;
61391;SDS011;47261;52.892;5.738;2024-01-30T03:35:18;20.10;;;9.30;;
61391;SDS011;47261;52.892;5.738;2024-01-30T03:37:44;19.90;;;9.70;;
61391;SDS011;47261;52.892;5.738;2024-01-30T03:40:09;26.40;;;12.40;;
61391;SDS011;47261;52.892;5.738;2024-01-30T03:42:35;20.98;;;10.30;;
61391;SDS011;47261;52.892;5.738;2024-01-30T03:45:01;26.88;;;12.93;;
61391;SDS011;47261;52.892;5.738;2024-01-30T03:47:27;29.90;;;13.37;;
61391;SDS011;47261;52.892;5.738;2024-01-30T03:49:53;22.95;;;11.68;;
61391;SDS011;47261;52.892;5.738;2024-01-30T03:52:18;19.17;;;8.60;;
61391;SDS011;47261;52.892;5.738;2024-01-30T03:54:44;26.15;;;11.57;;
61391;SDS011;47261;52.892;5.738;2024-01-30T03:57:10;18.33;;;9.07;;
61391;SDS011;47261;52.892;5.738;2024-01-30T03:59:36;21.25;;;10.82;;
61391;SDS011;47261;52.892;5.738;2024-01-30T04:02:01;24.67;;;11.13;;
61391;SDS011;47261;52.892;5.738;2024-01-30T04:04:27;23.13;;;11.77;;
61391;SDS011;47261;52.892;5.738;2024-01-30T04:06:53;14.55;;;7.35;;
61391;SDS011;47261;52.892;5.738;2024-01-30T04:09:18;23.23;;;10.63;;
61391;SDS011;47261;52.892;5.738;2024-01-30T04:11:44;19.93;;;8.50;;
61391;SDS011;47261;52.892;5.738;2024-01-30T04:14:10;30.40;;;11.52;;
61391;SDS011;47261;52.892;5.738;2024-01-30T04:16:36;21.17;;;9.70;;
61391;SDS011;47261;52.892;5.738;2024-01-30T04:19:01;23.73;;;12.00;;
61391;SDS011;47261;52.892;5.738;2024-01-30T04:21:27;22.23;;;11.23;;
61391;SDS011;47261;52.892;5.738;2024-01-30T04:23:53;21.00;;;10.50;;
61391;SDS011;47261;52.892;5.738;2024-01-30T04:26:18;16.90;;;7.97;;
61391;SDS011;47261;52.892;5.738;2024-01-30T04:28:44;21.13;;;10.68;;
61391;SDS011;47261;52.892;5.738;2024-01-30T04:31:10;19.87;;;8.37;;
61391;SDS011;47261;52.892;5.738;2024-01-30T04:33:36;16.85;;;7.93;;
61391;SDS011;47261;52.892;5.738;2024-01-30T04:36:02;20.38;;;9.75;;
61391;SDS011;47261;52.892;5.738;2024-01-30T04:38:28;21.42;;;9.65;;
61391;SDS011;47261;52.892;5.738;2024-01-30T04:40:54;21.97;;;10.30;;
61391;SDS011;47261;52.892;5.738;2024-01-30T04:43:20;20.65;;;10.32;;
61391;SDS011;47261;52.892;5.738;2024-01-30T04:45:46;20.48;;;8.32;;
61391;SDS011;47261;52.892;5.738;2024-01-30T04:48:12;19.03;;;7.93;;
61391;SDS011;47261;52.892;5.738;2024-01-30T04:50:38;18.95;;;8.52;;
61391;SDS011;47261;52.892;5.738;2024-01-30T04:53:04;18.83;;;9.00;;
61391;SDS011;47261;52.892;5.738;2024-01-30T04:55:30;17.93;;;8.67;;
61391;SDS011;47261;52.892;5.738;2024-01-30T04:57:55;21.13;;;10.23;;
61391;SDS011;47261;52.892;5.738;2024-01-30T05:00:21;20.60;;;10.03;;
61391;SDS011;47261;52.892;5.738;2024-01-30T05:02:46;18.63;;;8.90;;
61391;SDS011;47261;52.892;5.738;2024-01-30T05:05:12;15.18;;;6.65;;
61391;SDS011;47261;52.892;5.738;2024-01-30T05:07:38;21.23;;;9.57;;
61391;SDS011;47261;52.892;5.738;2024-01-30T05:10:06;18.00;;;8.32;;
61391;SDS011;47261;52.892;5.738;2024-01-30T05:12:33;19.30;;;8.07;;
61391;SDS011;47261;52.892;5.738;2024-01-30T05:14:59;21.27;;;10.17;;
61391;SDS011;47261;52.892;5.738;2024-01-30T05:17:24;19.95;;;9.25;;
61391;SDS011;47261;52.892;5.738;2024-01-30T05:19:50;17.57;;;9.10;;
61391;SDS011;47261;52.892;5.738;2024-01-30T05:22:15;21.45;;;10.18;;
61391;SDS011;47261;52.892;5.738;2024-01-30T05:24:43;21.00;;;8.63;;
61391;SDS011;47261;52.892;5.738;2024-01-30T05:27:09;20.23;;;8.90;;
61391;SDS011;47261;52.892;5.738;2024-01-30T05:29:35;21.77;;;8.60;;
61391;SDS011;47261;52.892;5.738;2024-01-30T05:32:01;25.03;;;10.87;;
61391;SDS011;47261;52.892;5.738;2024-01-30T05:34:28;13.43;;;5.93;;
61391;SDS011;47261;52.892;5.738;2024-01-30T05:36:53;20.47;;;10.43;;
61391;SDS011;47261;52.892;5.738;2024-01-30T05:39:19;15.33;;;7.87;;
61391;SDS011;47261;52.892;5.738;2024-01-30T05:41:45;23.30;;;11.60;;
61391;SDS011;47261;52.892;5.738;2024-01-30T05:44:10;13.20;;;6.70;;
61391;SDS011;47261;52.892;5.738;2024-01-30T05:46:36;17.10;;;7.00;;
61391;SDS011;47261;52.892;5.738;2024-01-30T05:49:01;20.38;;;9.13;;
61391;SDS011;47261;52.892;5.738;2024-01-30T05:51:27;19.40;;;9.33;;
61391;SDS011;47261;52.892;5.738;2024-01-30T05:53:53;17.75;;;8.07;;
61391;SDS011;47261;52.892;5.738;2024-01-30T05:56:19;18.37;;;8.73;;
61391;SDS011;47261;52.892;5.738;2024-01-30T05:58:44;13.63;;;5.75;;
61391;SDS011;47261;52.892;5.738;2024-01-30T06:01:10;12.77;;;7.07;;
61391;SDS011;47261;52.892;5.738;2024-01-30T06:03:36;22.20;;;10.02;;
61391;SDS011;47261;52.892;5.738;2024-01-30T06:06:01;13.57;;;6.37;;
61391;SDS011;47261;52.892;5.738;2024-01-30T06:08:27;21.30;;;6.53;;
61391;SDS011;47261;52.892;5.738;2024-01-30T06:10:53;20.47;;;7.17;;
61391;SDS011;47261;52.892;5.738;2024-01-30T06:13:18;17.98;;;7.35;;
61391;SDS011;47261;52.892;5.738;2024-01-30T06:15:44;21.77;;;10.50;;
61391;SDS011;47261;52.892;5.738;2024-01-30T06:18:10;19.13;;;8.50;;
61391;SDS011;47261;52.892;5.738;2024-01-30T06:20:35;19.43;;;9.17;;
61391;SDS011;47261;52.892;5.738;2024-01-30T06:23:01;10.60;;;4.33;;
61391;SDS011;47261;52.892;5.738;2024-01-30T06:25:27;17.17;;;7.15;;
61391;SDS011;47261;52.892;5.738;2024-01-30T06:27:52;18.93;;;8.97;;
61391;SDS011;47261;52.892;5.738;2024-01-30T06:30:18;18.77;;;8.57;;
61391;SDS011;47261;52.892;5.738;2024-01-30T06:32:44;19.13;;;8.77;;
61391;SDS011;47261;52.892;5.738;2024-01-30T06:35:09;13.05;;;6.18;;
61391;SDS011;47261;52.892;5.738;2024-01-30T06:37:35;19.70;;;9.13;;
61391;SDS011;47261;52.892;5.738;2024-01-30T06:40:01;16.58;;;7.78;;
61391;SDS011;47261;52.892;5.738;2024-01-30T06:42:27;15.02;;;7.38;;
61391;SDS011;47261;52.892;5.738;2024-01-30T06:44:53;10.63;;;5.20;;
61391;SDS011;47261;52.892;5.738;2024-01-30T06:47:18;17.35;;;8.40;;
61391;SDS011;47261;52.892;5.738;2024-01-30T06:49:44;13.70;;;7.30;;
61391;SDS011;47261;52.892;5.738;2024-01-30T06:52:10;13.30;;;6.05;;
61391;SDS011;47261;52.892;5.738;2024-01-30T06:54:36;12.25;;;6.13;;
61391;SDS011;47261;52.892;5.738;2024-01-30T06:57:02;13.88;;;5.30;;
61391;SDS011;47261;52.892;5.738;2024-01-30T06:59:28;13.60;;;5.60;;
61391;SDS011;47261;52.892;5.738;2024-01-30T07:01:53;9.73;;;4.40;;
61391;SDS011;47261;52.892;5.738;2024-01-30T07:04:19;14.40;;;6.85;;
61391;SDS011;47261;52.892;5.738;2024-01-30T07:06:44;13.80;;;5.80;;
61391;SDS011;47261;52.892;5.738;2024-01-30T07:09:10;14.53;;;6.63;;
61391;SDS011;47261;52.892;5.738;2024-01-30T07:11:37;14.77;;;7.07;;
61391;SDS011;47261;52.892;5.738;2024-01-30T07:14:02;16.40;;;9.05;;
61391;SDS011;47261;52.892;5.738;2024-01-30T07:16:31;11.67;;;4.83;;
61391;SDS011;47261;52.892;5.738;2024-01-30T07:18:56;14.52;;;7.05;;
61391;SDS011;47261;52.892;5.738;2024-01-30T07:21:22;18.20;;;8.10;;
61391;SDS011;47261;52.892;5.738;2024-01-30T07:23:53;16.02;;;7.35;;
61391;SDS011;47261;52.892;5.738;2024-01-30T07:26:19;18.40;;;7.85;;
61391;SDS011;47261;52.892;5.738;2024-01-30T07:28:45;18.07;;;7.83;;
61391;SDS011;47261;52.892;5.738;2024-01-30T07:31:10;17.48;;;8.80;;
61391;SDS011;47261;52.892;5.738;2024-01-30T07:33:36;14.33;;;6.87;;
61391;SDS011;47261;52.892;5.738;2024-01-30T07:36:01;14.02;;;6.65;;
61391;SDS011;47261;52.892;5.738;2024-01-30T07:38:27;14.77;;;7.13;;
61391;SDS011;47261;52.892;5.738;2024-01-30T07:40:53;11.98;;;5.35;;
61391;SDS011;47261;52.892;5.738;2024-01-30T07:43:19;16.10;;;7.83;;
61391;SDS011;47261;52.892;5.738;2024-01-30T07:45:45;13.88;;;5.43;;
61391;SDS011;47261;52.892;5.738;2024-01-30T07:48:10;13.73;;;5.73;;
61391;SDS011;47261;52.892;5.738;2024-01-30T07:50:36;17.15;;;6.35;;
61391;SDS011;47261;52.892;5.738;2024-01-30T07:53:02;18.63;;;6.87;;
61391;SDS011;47261;52.892;5.738;2024-01-30T07:55:27;14.50;;;6.25;;
61391;SDS011;47261;52.892;5.738;2024-01-30T07:57:54;16.73;;;7.70;;
61391;SDS011;47261;52.892;5.738;2024-01-30T08:00:20;19.50;;;7.95;;
61391;SDS011;47261;52.892;5.738;2024-01-30T08:02:53;14.70;;;7.15;;
61391;SDS011;47261;52.892;5.738;2024-01-30T08:05:20;17.60;;;7.15;;
61391;SDS011;47261;52.892;5.738;2024-01-30T08:07:47;17.75;;;7.30;;
61391;SDS011;47261;52.892;5.738;2024-01-30T08:10:13;9.23;;;3.60;;
61391;SDS011;47261;52.892;5.738;2024-01-30T08:12:40;15.23;;;7.18;;
61391;SDS011;47261;52.892;5.738;2024-01-30T08:15:06;13.45;;;7.03;;
61391;SDS011;47261;52.892;5.738;2024-01-30T08:17:32;22.58;;;6.78;;
61391;SDS011;47261;52.892;5.738;2024-01-30T08:19:58;13.17;;;6.20;;
61391;SDS011;47261;52.892;5.738;2024-01-30T08:22:24;14.48;;;6.40;;
61391;SDS011;47261;52.892;5.738;2024-01-30T08:24:49;11.50;;;5.77;;
61391;SDS011;47261;52.892;5.738;2024-01-30T08:27:15;16.05;;;6.47;;
61391;SDS011;47261;52.892;5.738;2024-01-30T08:29:41;16.87;;;6.67;;
61391;SDS011;47261;52.892;5.738;2024-01-30T08:32:07;17.55;;;5.47;;
61391;SDS011;47261;52.892;5.738;2024-01-30T08:34:33;14.00;;;5.80;;
61391;SDS011;47261;52.892;5.738;2024-01-30T08:36:59;11.83;;;5.13;;
61391;SDS011;47261;52.892;5.738;2024-01-30T08:39:24;13.75;;;6.57;;
61391;SDS011;47261;52.892;5.738;2024-01-30T08:41:50;17.53;;;7.47;;
61391;SDS011;47261;52.892;5.738;2024-01-30T08:44:16;15.75;;;6.53;;
61391;SDS011;47261;52.892;5.738;2024-01-30T08:46:43;13.05;;;5.78;;
61391;SDS011;47261;52.892;5.738;2024-01-30T08:49:10;14.77;;;6.20;;
61391;SDS011;47261;52.892;5.738;2024-01-30T08:51:38;11.30;;;5.07;;
61391;SDS011;47261;52.892;5.738;2024-01-30T08:54:04;12.15;;;4.90;;
61391;SDS011;47261;52.892;5.738;2024-01-30T08:56:30;16.58;;;5.57;;
61391;SDS011;47261;52.892;5.738;2024-01-30T08:58:55;13.23;;;5.57;;
61391;SDS011;47261;52.892;5.738;2024-01-30T09:01:21;14.90;;;8.30;;
61391;SDS011;47261;52.892;5.738;2024-01-30T09:03:46;17.35;;;7.05;;
61391;SDS011;47261;52.892;5.738;2024-01-30T09:06:12;16.63;;;6.40;;
61391;SDS011;47261;52.892;5.738;2024-01-30T09:08:38;14.25;;;6.57;;
61391;SDS011;47261;52.892;5.738;2024-01-30T09:11:14;24.48;;;6.90;;
61391;SDS011;47261;52.892;5.738;2024-01-30T09:13:40;13.90;;;6.03;;
61391;SDS011;47261;52.892;5.738;2024-01-30T09:16:06;10.48;;;5.85;;
61391;SDS011;47261;52.892;5.738;2024-01-30T09:18:32;11.05;;;5.88;;
61391;SDS011;47261;52.892;5.738;2024-01-30T09:20:57;13.83;;;5.90;;
61391;SDS011;47261;52.892;5.738;2024-01-30T09:23:23;13.45;;;5.93;;
61391;SDS011;47261;52.892;5.738;2024-01-30T09:25:49;11.20;;;4.97;;
61391;SDS011;47261;52.892;5.738;2024-01-30T09:28:15;13.73;;;5.37;;
61391;SDS011;47261;52.892;5.738;2024-01-30T09:30:42;13.43;;;6.05;;
61391;SDS011;47261;52.892;5.738;2024-01-30T09:33:08;17.35;;;7.00;;
61391;SDS011;47261;52.892;5.738;2024-01-30T09:35:33;12.50;;;5.30;;
61391;SDS011;47261;52.892;5.738;2024-01-30T09:37:59;17.40;;;7.73;;
61391;SDS011;47261;52.892;5.738;2024-01-30T09:40:24;11.38;;;5.32;;
61391;SDS011;47261;52.892;5.738;2024-01-30T09:42:50;13.13;;;5.27;;
61391;SDS011;47261;52.892;5.738;2024-01-30T09:45:21;13.80;;;7.18;;
61391;SDS011;47261;52.892;5.738;2024-01-30T09:47:49;14.18;;;7.05;;
61391;SDS011;47261;52.892;5.738;2024-01-30T09:50:15;15.95;;;6.25;;
61391;SDS011;47261;52.892;5.738;2024-01-30T09:52:42;12.10;;;6.40;;
61391;SDS011;47261;52.892;5.738;2024-01-30T09:55:12;14.93;;;5.47;;
61391;SDS011;47261;52.892;5.738;2024-01-30T09:57:38;10.90;;;5.65;;
61391;SDS011;47261;52.892;5.738;2024-01-30T10:00:04;17.27;;;6.45;;
61391;SDS011;47261;52.892;5.738;2024-01-30T10:02:33;17.42;;;6.53;;
61391;SDS011;47261;52.892;5.738;2024-01-30T10:05:02;14.02;;;7.35;;
61391;SDS011;47261;52.892;5.738;2024-01-30T10:07:28;9.93;;;5.77;;
61391;SDS011;47261;52.892;5.738;2024-01-30T10:09:55;13.73;;;7.05;;
61391;SDS011;47261;52.892;5.738;2024-01-30T10:12:21;14.90;;;6.00;;
61391;SDS011;47261;52.892;5.738;2024-01-30T10:14:47;15.25;;;6.53;;
61391;SDS011;47261;52.892;5.738;2024-01-30T10:17:13;13.20;;;6.47;;
61391;SDS011;47261;52.892;5.738;2024-01-30T10:19:39;12.50;;;6.68;;
61391;SDS011;47261;52.892;5.738;2024-01-30T10:22:05;14.55;;;5.95;;
61391;SDS011;47261;52.892;5.738;2024-01-30T10:24:31;14.03;;;6.60;;
61391;SDS011;47261;52.892;5.738;2024-01-30T10:26:58;15.98;;;5.63;;
61391;SDS011;47261;52.892;5.738;2024-01-30T10:29:24;14.50;;;6.27;;
61391;SDS011;47261;52.892;5.738;2024-01-30T10:31:59;16.13;;;6.13;;
61391;SDS011;47261;52.892;5.738;2024-01-30T10:34:29;12.18;;;5.63;;
61391;SDS011;47261;52.892;5.738;2024-01-30T10:37:13;12.87;;;6.53;;
61391;SDS011;47261;52.892;5.738;2024-01-30T10:39:41;12.75;;;5.45;;
61391;SDS011;47261;52.892;5.738;2024-01-30T10:42:12;16.90;;;7.65;;
61391;SDS011;47261;52.892;5.738;2024-01-30T10:44:48;16.02;;;6.03;;
61391;SDS011;47261;52.892;5.738;2024-01-30T10:47:30;13.27;;;5.65;;
61391;SDS011;47261;52.892;5.738;2024-01-30T10:49:55;15.37;;;4.43;;
61391;SDS011;47261;52.892;5.738;2024-01-30T10:52:25;14.38;;;4.78;;
61391;SDS011;47261;52.892;5.738;2024-01-30T10:54:53;9.45;;;2.70;;
61391;SDS011;47261;52.892;5.738;2024-01-30T10:57:19;11.50;;;1.70;;
61391;SDS011;47261;52.892;5.738;2024-01-30T10:59:52;5.90;;;0.90;;
61391;SDS011;47261;52.892;5.738;2024-01-30T11:02:22;4.95;;;0.98;;
61391;SDS011;47261;52.892;5.738;2024-01-30T11:04:49;6.18;;;0.57;;
61391;SDS011;47261;52.892;5.738;2024-01-30T11:07:16;6.32;;;0.80;;
61391;SDS011;47261;52.892;5.738;2024-01-30T11:12:26;6.25;;;1.00;;
61391;SDS011;47261;52.892;5.738;2024-01-30T11:17:50;7.20;;;1.23;;
61391;SDS011;47261;52.892;5.738;2024-01-30T11:20:29;7.00;;;1.13;;
61391;SDS011;47261;52.892;5.738;2024-01-30T11:23:01;5.00;;;0.70;;
61391;SDS011;47261;52.892;5.738;2024-01-30T11:25:31;7.15;;;0.88;;
61391;SDS011;47261;52.892;5.738;2024-01-30T11:27:57;5.93;;;0.73;;
61391;SDS011;47261;52.892;5.738;2024-01-30T11:35:23;9.10;;;1.17;;
61391;SDS011;47261;52.892;5.738;2024-01-30T11:37:50;6.32;;;0.95;;
61391;SDS011;47261;52.892;5.738;2024-01-30T11:40:16;3.15;;;1.00;;
61391;SDS011;47261;52.892;5.738;2024-01-30T11:42:42;3.93;;;1.07;;
61391;SDS011;47261;52.892;5.738;2024-01-30T11:45:08;7.30;;;1.05;;
61391;SDS011;47261;52.892;5.738;2024-01-30T11:47:35;5.47;;;0.85;;
61391;SDS011;47261;52.892;5.738;2024-01-30T11:50:03;8.43;;;1.20;;
61391;SDS011;47261;52.892;5.738;2024-01-30T11:52:31;7.53;;;1.20;;
61391;SDS011;47261;52.892;5.738;2024-01-30T11:54:58;11.18;;;1.00;;
61391;SDS011;47261;52.892;5.738;2024-01-30T11:57:26;6.07;;;0.88;;
61391;SDS011;47261;52.892;5.738;2024-01-30T11:59:52;6.50;;;1.00;;
61391;SDS011;47261;52.892;5.738;2024-01-30T12:02:17;6.07;;;0.90;;
61391;SDS011;47261;52.892;5.738;2024-01-30T12:04:43;6.37;;;1.07;;
61391;SDS011;47261;52.892;5.738;2024-01-30T12:07:09;4.05;;;0.70;;
61391;SDS011;47261;52.892;5.738;2024-01-30T12:09:35;6.25;;;1.27;;
61391;SDS011;47261;52.892;5.738;2024-01-30T12:12:00;7.80;;;0.70;;
61391;SDS011;47261;52.892;5.738;2024-01-30T12:14:26;5.07;;;0.70;;
61391;SDS011;47261;52.892;5.738;2024-01-30T12:16:52;3.13;;;0.87;;
61391;SDS011;47261;52.892;5.738;2024-01-30T12:19:21;4.45;;;0.63;;
61391;SDS011;47261;52.892;5.738;2024-01-30T12:21:59;3.83;;;0.80;;
61391;SDS011;47261;52.892;5.738;2024-01-30T12:24:27;4.03;;;0.68;;
61391;SDS011;47261;52.892;5.738;2024-01-30T12:26:58;4.07;;;0.82;;
61391;SDS011;47261;52.892;5.738;2024-01-30T12:29:25;4.72;;;0.73;;
61391;SDS011;47261;52.892;5.738;2024-01-30T12:31:54;3.40;;;0.60;;
61391;SDS011;47261;52.892;5.738;2024-01-30T12:34:20;5.57;;;0.70;;
61391;SDS011;47261;52.892;5.738;2024-01-30T12:36:49;5.13;;;0.60;;
61391;SDS011;47261;52.892;5.738;2024-01-30T12:39:15;2.00;;;0.40;;
61391;SDS011;47261;52.892;5.738;2024-01-30T12:41:41;4.23;;;0.60;;
61391;SDS011;47261;52.892;5.738;2024-01-30T12:44:06;5.05;;;0.80;;
61391;SDS011;47261;52.892;5.738;2024-01-30T12:46:34;5.43;;;0.63;;
61391;SDS011;47261;52.892;5.738;2024-01-30T12:49:00;5.00;;;0.50;;
61391;SDS011;47261;52.892;5.738;2024-01-30T12:51:25;3.10;;;0.40;;
61391;SDS011;47261;52.892;5.738;2024-01-30T12:53:51;4.17;;;0.87;;
61391;SDS011;47261;52.892;5.738;2024-01-30T12:56:17;2.78;;;0.40;;
61391;SDS011;47261;52.892;5.738;2024-01-30T12:58:42;5.73;;;0.90;;
61391;SDS011;47261;52.892;5.738;2024-01-30T13:01:08;5.43;;;0.70;;
61391;SDS011;47261;52.892;5.738;2024-01-30T13:03:34;5.28;;;0.50;;
61391;SDS011;47261;52.892;5.738;2024-01-30T13:06:00;6.35;;;0.60;;
61391;SDS011;47261;52.892;5.738;2024-01-30T13:08:26;3.43;;;0.40;;
61391;SDS011;47261;52.892;5.738;2024-01-30T13:10:52;2.37;;;0.40;;
61391;SDS011;47261;52.892;5.738;2024-01-30T13:13:17;2.78;;;0.47;;
61391;SDS011;47261;52.892;5.738;2024-01-30T13:15:43;4.27;;;0.40;;
61391;SDS011;47261;52.892;5.738;2024-01-30T13:18:09;4.27;;;0.60;;
61391;SDS011;47261;52.892;5.738;2024-01-30T13:20:35;6.70;;;0.80;;
61391;SDS011;47261;52.892;5.738;2024-01-30T13:23:00;4.68;;;0.88;;
61391;SDS011;47261;52.892;5.738;2024-01-30T13:25:26;5.80;;;0.90;;
61391;SDS011;47261;52.892;5.738;2024-01-30T13:27:52;5.47;;;0.83;;
61391;SDS011;47261;52.892;5.738;2024-01-30T13:30:17;6.03;;;1.35;;
61391;SDS011;47261;52.892;5.738;2024-01-30T13:32:43;3.80;;;0.68;;
61391;SDS011;47261;52.892;5.738;2024-01-30T13:35:09;6.80;;;1.00;;
61391;SDS011;47261;52.892;5.738;2024-01-30T13:37:35;7.20;;;0.55;;
61391;SDS011;47261;52.892;5.738;2024-01-30T13:40:02;5.35;;;0.90;;
61391;SDS011;47261;52.892;5.738;2024-01-30T13:42:32;4.75;;;1.10;;
61391;SDS011;47261;52.892;5.738;2024-01-30T13:44:57;5.37;;;0.70;;
61391;SDS011;47261;52.892;5.738;2024-01-30T13:47:23;4.00;;;1.20;;
61391;SDS011;47261;52.892;5.738;2024-01-30T13:49:49;8.57;;;1.33;;
61391;SDS011;47261;52.892;5.738;2024-01-30T13:52:14;7.53;;;1.10;;
61391;SDS011;47261;52.892;5.738;2024-01-30T13:54:40;3.50;;;0.97;;
61391;SDS011;47261;52.892;5.738;2024-01-30T13:57:05;5.77;;;1.03;;
61391;SDS011;47261;52.892;5.738;2024-01-30T13:59:32;5.20;;;1.17;;
61391;SDS011;47261;52.892;5.738;2024-01-30T14:01:58;7.53;;;0.98;;
61391;SDS011;47261;52.892;5.738;2024-01-30T14:04:24;7.23;;;1.47;;
61391;SDS011;47261;52.892;5.738;2024-01-30T14:06:49;4.72;;;1.30;;
61391;SDS011;47261;52.892;5.738;2024-01-30T14:09:15;4.10;;;0.63;;
61391;SDS011;47261;52.892;5.738;2024-01-30T14:11:41;5.20;;;1.10;;
61391;SDS011;47261;52.892;5.738;2024-01-30T14:14:07;7.13;;;1.52;;
61391;SDS011;47261;52.892;5.738;2024-01-30T14:16:33;7.32;;;1.77;;
61391;SDS011;47261;52.892;5.738;2024-01-30T14:18:59;9.10;;;1.33;;
61391;SDS011;47261;52.892;5.738;2024-01-30T14:21:25;5.73;;;1.17;;
61391;SDS011;47261;52.892;5.738;2024-01-30T14:23:50;6.90;;;1.52;;
61391;SDS011;47261;52.892;5.738;2024-01-30T14:26:16;5.65;;;1.33;;
61391;SDS011;47261;52.892;5.738;2024-01-30T14:28:42;4.83;;;1.07;;
61391;SDS011;47261;52.892;5.738;2024-01-30T14:31:08;5.38;;;1.70;;
61391;SDS011;47261;52.892;5.738;2024-01-30T14:33:34;5.38;;;1.50;;
61391;SDS011;47261;52.892;5.738;2024-01-30T14:35:59;6.27;;;1.90;;
61391;SDS011;47261;52.892;5.738;2024-01-30T14:38:25;7.50;;;1.70;;